Time;durP1;ratioP1;P1;durP2;ratioP2;P2;SDS_P1;SDS_P2;PMS_P1;PMS_P2;Temp;Humidity;BMP_temperature;BMP_pressure;BME280_temperature;BME280_humidity;BME280_pressure;Samples;Min_cycle;Max_cycle;Signal;HPM_P1;HPM_P2
2021/06/22 00:00:13;;;;;;;4.18;1.20;;;22.50;58.50;;;;;;5034947;28;20021;-68
2021/06/22 00:02:38;;;;;;;3.70;0.93;;;22.50;58.50;;;;;;5034654;28;20389;-69
2021/06/22 00:05:06;;;;;;;6.47;1.48;;;22.50;58.50;;;;;;5035366;28;20063;-68
2021/06/22 00:07:31;;;;;;;3.40;0.82;;;22.50;58.40;;;;;;5036144;28;20044;-68
2021/06/22 00:09:57;;;;;;;2.00;0.80;;;22.50;58.40;;;;;;5036109;28;20385;-68
2021/06/22 00:12:22;;;;;;;3.30;1.13;;;22.50;58.40;;;;;;5039828;28;20040;-69
2021/06/22 00:14:48;;;;;;;6.78;1.30;;;22.50;58.30;;;;;;5035568;28;20147;-68
2021/06/22 00:17:14;;;;;;;4.25;1.20;;;22.50;58.40;;;;;;5036138;28;20044;-68
2021/06/22 00:19:39;;;;;;;4.50;1.50;;;22.50;58.30;;;;;;5035829;28;20049;-68
2021/06/22 00:22:05;;;;;;;2.35;1.05;;;22.50;58.30;;;;;;5036662;28;20385;-69
2021/06/22 00:24:31;;;;;;;5.28;1.45;;;22.50;58.30;;;;;;5035617;28;20485;-69
2021/06/22 00:26:57;;;;;;;4.50;1.10;;;22.40;58.30;;;;;;5035467;28;20040;-69
2021/06/22 00:29:26;;;;;;;5.75;1.33;;;22.50;58.30;;;;;;5035352;28;20434;-69
2021/06/22 00:31:52;;;;;;;5.60;1.20;;;22.40;58.20;;;;;;5035412;28;20466;-68
2021/06/22 00:34:17;;;;;;;5.05;1.00;;;22.40;58.20;;;;;;5035326;28;20036;-68
2021/06/22 00:36:43;;;;;;;2.30;0.82;;;22.40;58.30;;;;;;5035327;28;20124;-69
2021/06/22 00:39:09;;;;;;;6.65;1.23;;;22.40;58.30;;;;;;5050405;28;20033;-69
2021/06/22 00:41:35;;;;;;;3.47;1.30;;;22.40;58.30;;;;;;5034985;28;20377;-69
2021/06/22 00:44:05;;;;;;;3.33;1.17;;;22.40;58.30;;;;;;5033746;28;20034;-69
2021/06/22 00:46:30;;;;;;;3.22;0.93;;;22.40;58.20;;;;;;5034736;28;20523;-68
2021/06/22 00:48:56;;;;;;;3.80;1.38;;;22.40;58.20;;;;;;5035003;28;20030;-69
2021/06/22 00:51:21;;;;;;;5.45;1.30;;;22.40;58.20;;;;;;5033488;28;20052;-69
2021/06/22 00:53:47;;;;;;;5.05;1.25;;;22.40;58.20;;;;;;5034864;28;20486;-69
2021/06/22 00:56:13;;;;;;;3.78;1.10;;;22.40;58.20;;;;;;5034724;28;20029;-69
2021/06/22 00:58:39;;;;;;;3.65;1.25;;;22.40;58.20;;;;;;5034861;28;20030;-69
2021/06/22 01:01:04;;;;;;;5.32;1.05;;;22.40;58.20;;;;;;5034480;28;20032;-69
2021/06/22 01:03:30;;;;;;;1.83;0.90;;;22.40;58.20;;;;;;5034576;28;20388;-68
2021/06/22 01:05:56;;;;;;;2.20;1.10;;;22.30;58.30;;;;;;5034812;28;20034;-68
2021/06/22 01:08:22;;;;;;;4.40;1.30;;;22.30;58.20;;;;;;5034543;28;20021;-68
2021/06/22 01:10:47;;;;;;;1.98;1.10;;;22.30;58.20;;;;;;5034402;28;20112;-69
2021/06/22 01:13:13;;;;;;;2.92;1.20;;;22.30;58.20;;;;;;5034425;28;20057;-69
2021/06/22 01:15:38;;;;;;;6.05;1.60;;;22.30;58.10;;;;;;5033315;28;20144;-69
2021/06/22 01:18:05;;;;;;;5.18;1.23;;;22.30;58.20;;;;;;5034623;28;20029;-69
2021/06/22 01:20:32;;;;;;;3.53;1.17;;;22.30;58.10;;;;;;5034309;28;20022;-69
2021/06/22 01:23:00;;;;;;;2.78;1.10;;;22.30;58.10;;;;;;5032966;28;20550;-69
2021/06/22 01:25:26;;;;;;;3.58;1.05;;;22.30;58.10;;;;;;5034231;28;20025;-69
2021/06/22 01:27:52;;;;;;;4.47;1.20;;;22.30;58.10;;;;;;5034278;28;20550;-69
2021/06/22 01:30:18;;;;;;;5.38;1.58;;;22.20;58.10;;;;;;5034117;28;20036;-69
2021/06/22 01:32:43;;;;;;;2.33;1.00;;;22.20;58.10;;;;;;5034424;28;20068;-69
2021/06/22 01:35:10;;;;;;;3.53;1.10;;;22.20;58.10;;;;;;5034158;28;20075;-69
2021/06/22 01:37:36;;;;;;;3.20;1.10;;;22.20;58.10;;;;;;5033938;28;20038;-69
2021/06/22 01:40:06;;;;;;;3.97;1.35;;;22.30;58.10;;;;;;5033944;28;20027;-69
2021/06/22 01:42:32;;;;;;;3.95;1.20;;;22.20;58.00;;;;;;5033941;28;20595;-69
2021/06/22 01:44:58;;;;;;;4.93;1.30;;;22.20;58.10;;;;;;5033916;28;20045;-69
2021/06/22 01:47:24;;;;;;;2.30;0.95;;;22.20;58.10;;;;;;5039852;28;20036;-69
2021/06/22 01:50:00;;;;;;;3.78;1.15;;;22.20;58.00;;;;;;5044030;28;20032;-69
2021/06/22 01:52:26;;;;;;;3.45;1.20;;;22.20;58.00;;;;;;5040987;28;20489;-69
2021/06/22 01:54:54;;;;;;;4.57;1.50;;;22.20;58.00;;;;;;5035246;28;20037;-69
2021/06/22 01:57:22;;;;;;;3.10;1.10;;;22.20;58.00;;;;;;5034742;28;20041;-69
2021/06/22 01:59:47;;;;;;;3.17;1.05;;;22.20;57.90;;;;;;5034683;28;20026;-69
2021/06/22 02:02:13;;;;;;;4.38;1.23;;;22.20;58.00;;;;;;5034551;28;20116;-69
2021/06/22 02:04:38;;;;;;;2.00;0.93;;;22.20;58.00;;;;;;5033156;28;20116;-69
2021/06/22 02:07:04;;;;;;;3.53;1.30;;;22.20;58.00;;;;;;5033996;28;20025;-69
2021/06/22 02:09:29;;;;;;;2.72;1.50;;;22.20;58.00;;;;;;5034219;28;20376;-69
2021/06/22 02:11:55;;;;;;;4.88;1.45;;;22.20;57.90;;;;;;5034230;28;20029;-69
2021/06/22 02:14:21;;;;;;;3.33;1.10;;;22.10;58.00;;;;;;5034174;28;20047;-69
2021/06/22 02:16:46;;;;;;;3.65;1.25;;;22.20;57.90;;;;;;5033954;28;20484;-69
2021/06/22 02:19:11;;;;;;;5.00;1.02;;;22.10;58.00;;;;;;5035854;28;20034;-69
2021/06/22 02:21:37;;;;;;;4.00;1.10;;;22.10;58.00;;;;;;5044209;28;20029;-69
2021/06/22 02:24:04;;;;;;;3.15;1.30;;;22.10;57.90;;;;;;5035265;28;20045;-69
2021/06/22 02:26:29;;;;;;;3.90;1.38;;;22.10;58.00;;;;;;5034144;28;20079;-69
2021/06/22 02:28:55;;;;;;;4.65;1.30;;;22.10;58.00;;;;;;5034104;28;20026;-69
2021/06/22 02:31:20;;;;;;;6.00;1.45;;;22.10;57.90;;;;;;5033837;28;20075;-69
2021/06/22 02:33:46;;;;;;;3.30;1.70;;;22.10;57.90;;;;;;5034059;28;20531;-70
2021/06/22 02:36:12;;;;;;;2.78;1.10;;;22.10;58.00;;;;;;5033887;28;20033;-70
2021/06/22 02:38:37;;;;;;;3.55;1.10;;;22.10;57.90;;;;;;5033659;28;20458;-70
2021/06/22 02:41:03;;;;;;;3.38;1.10;;;22.10;57.90;;;;;;5033577;28;20120;-68
2021/06/22 02:43:28;;;;;;;3.92;1.45;;;22.10;57.90;;;;;;5033567;28;20022;-69
2021/06/22 02:45:54;;;;;;;3.70;1.48;;;22.10;57.90;;;;;;5033362;28;20096;-69
2021/06/22 02:48:20;;;;;;;3.53;1.30;;;22.00;57.90;;;;;;5033429;28;20541;-69
2021/06/22 02:50:45;;;;;;;5.38;1.63;;;22.00;57.90;;;;;;5033319;28;20068;-69
2021/06/22 02:53:11;;;;;;;3.53;1.45;;;22.00;57.80;;;;;;5033237;28;20112;-70
2021/06/22 02:55:37;;;;;;;3.03;0.95;;;22.00;57.80;;;;;;5033279;28;20033;-69
2021/06/22 02:58:03;;;;;;;3.28;1.30;;;22.00;57.80;;;;;;5033154;28;20080;-69
2021/06/22 03:00:31;;;;;;;4.28;1.08;;;22.00;57.80;;;;;;5033194;28;20025;-69
2021/06/22 03:02:57;;;;;;;4.88;1.60;;;22.00;57.80;;;;;;5033091;28;20449;-70
2021/06/22 03:05:23;;;;;;;3.90;1.40;;;22.00;57.80;;;;;;5033185;28;20388;-69
2021/06/22 03:07:49;;;;;;;5.03;1.40;;;22.00;57.80;;;;;;5033137;28;20017;-69
2021/06/22 03:10:17;;;;;;;4.72;1.40;;;22.00;57.80;;;;;;5032920;28;20034;-69
2021/06/22 03:12:43;;;;;;;3.67;1.40;;;22.00;57.80;;;;;;5032947;28;20020;-69
2021/06/22 03:15:11;;;;;;;5.00;1.23;;;22.00;57.80;;;;;;5031849;28;20477;-69
2021/06/22 03:17:37;;;;;;;3.60;1.30;;;22.00;57.80;;;;;;5032790;28;20095;-69
2021/06/22 03:20:07;;;;;;;4.65;1.10;;;22.00;57.80;;;;;;5033326;28;20026;-69
2021/06/22 03:22:33;;;;;;;4.18;1.10;;;22.00;57.80;;;;;;5032397;28;20033;-69
2021/06/22 03:24:59;;;;;;;2.97;0.93;;;22.00;57.80;;;;;;5032833;28;20535;-69
2021/06/22 03:27:24;;;;;;;3.30;1.30;;;22.00;57.70;;;;;;5048244;28;20532;-70
2021/06/22 03:29:50;;;;;;;3.55;1.48;;;21.90;57.80;;;;;;5032708;28;20529;-70
2021/06/22 03:32:16;;;;;;;5.22;1.55;;;21.90;57.70;;;;;;5032943;28;20026;-70
2021/06/22 03:34:42;;;;;;;4.70;1.58;;;22.00;57.70;;;;;;5032634;28;20074;-70
2021/06/22 03:37:08;;;;;;;3.28;1.27;;;22.00;57.70;;;;;;5033144;28;20033;-69
2021/06/22 03:39:34;;;;;;;5.95;1.80;;;22.00;57.70;;;;;;5040398;28;20462;-69
2021/06/22 03:42:00;;;;;;;4.18;1.23;;;21.90;57.70;;;;;;5037241;28;20026;-70
2021/06/22 03:44:26;;;;;;;3.05;1.27;;;21.90;57.60;;;;;;5036354;28;20359;-69
2021/06/22 03:46:51;;;;;;;3.08;1.20;;;21.90;57.60;;;;;;5036540;28;20041;-69
2021/06/22 03:49:17;;;;;;;3.25;1.15;;;22.00;57.60;;;;;;5036352;28;20030;-70
2021/06/22 03:51:43;;;;;;;3.80;1.25;;;21.90;57.60;;;;;;5036374;28;20117;-69
2021/06/22 03:54:08;;;;;;;6.93;1.52;;;21.90;57.60;;;;;;5036185;28;20028;-70
2021/06/22 03:56:34;;;;;;;3.85;1.30;;;21.90;57.60;;;;;;5036415;28;20100;-69
2021/06/22 03:59:00;;;;;;;4.13;1.27;;;21.90;57.60;;;;;;5036672;28;20021;-69
2021/06/22 04:01:25;;;;;;;3.63;1.33;;;21.90;57.60;;;;;;5036167;28;20080;-69
2021/06/22 04:03:51;;;;;;;2.78;1.20;;;21.90;57.50;;;;;;5036220;28;20025;-70
2021/06/22 04:06:16;;;;;;;6.13;1.42;;;22.00;57.50;;;;;;5036550;28;20029;-69
2021/06/22 04:08:42;;;;;;;4.35;1.25;;;21.90;57.50;;;;;;5036745;28;20037;-69
2021/06/22 04:11:08;;;;;;;3.00;1.10;;;21.90;57.50;;;;;;5042109;28;20152;-69
2021/06/22 04:13:35;;;;;;;4.25;1.30;;;21.90;57.40;;;;;;5045103;28;20030;-70
2021/06/22 04:16:00;;;;;;;4.25;1.30;;;21.90;57.40;;;;;;5042890;28;20038;-69
2021/06/22 04:18:26;;;;;;;4.97;1.20;;;21.90;57.50;;;;;;5037812;28;20087;-70
2021/06/22 04:20:51;;;;;;;4.50;1.17;;;21.90;57.40;;;;;;5037597;28;20095;-69
2021/06/22 04:23:17;;;;;;;3.72;1.45;;;21.90;57.40;;;;;;5054964;28;20036;-69
2021/06/22 04:25:44;;;;;;;5.43;1.27;;;21.90;57.40;;;;;;5046828;28;20048;-70
2021/06/22 04:28:10;;;;;;;5.28;1.40;;;21.90;57.30;;;;;;5047230;28;20025;-70
2021/06/22 04:30:37;;;;;;;4.30;1.75;;;21.90;57.40;;;;;;5046413;28;20159;-72
2021/06/22 04:33:04;;;;;;;3.15;1.40;;;21.90;57.40;;;;;;5046678;28;20032;-70
2021/06/22 04:35:30;;;;;;;6.70;1.73;;;21.90;57.30;;;;;;5046306;28;20077;-71
2021/06/22 04:37:58;;;;;;;4.90;1.55;;;21.90;57.30;;;;;;5048479;28;20038;-70
2021/06/22 04:40:23;;;;;;;8.48;1.70;;;21.90;57.20;;;;;;5046079;28;20484;-69
2021/06/22 04:42:49;;;;;;;5.38;1.58;;;21.90;57.20;;;;;;5045709;28;20032;-69
2021/06/22 04:45:15;;;;;;;3.28;1.67;;;21.90;57.20;;;;;;5045256;28;20464;-70
2021/06/22 04:47:41;;;;;;;5.80;1.60;;;21.90;57.10;;;;;;5036423;28;20025;-69
2021/06/22 04:50:07;;;;;;;3.03;1.20;;;21.90;57.20;;;;;;5034929;28;20112;-70
2021/06/22 04:52:33;;;;;;;3.90;1.35;;;21.90;57.10;;;;;;5035141;28;20029;-69
2021/06/22 04:54:59;;;;;;;2.63;1.08;;;21.90;57.10;;;;;;5034958;28;20089;-69
2021/06/22 04:57:24;;;;;;;3.67;1.23;;;22.00;57.10;;;;;;5035240;28;20116;-69
2021/06/22 04:59:50;;;;;;;6.22;1.48;;;22.00;57.00;;;;;;5035031;28;20036;-69
2021/06/22 05:02:16;;;;;;;4.05;1.20;;;22.00;57.10;;;;;;5035882;28;20025;-70
2021/06/22 05:04:42;;;;;;;4.28;1.30;;;21.90;57.10;;;;;;5038379;28;20113;-69
2021/06/22 05:07:07;;;;;;;3.28;1.35;;;21.90;57.00;;;;;;5039527;28;20069;-69
2021/06/22 05:09:33;;;;;;;4.45;1.35;;;21.90;57.00;;;;;;5035921;28;20013;-68
2021/06/22 05:11:58;;;;;;;4.15;1.40;;;21.90;57.00;;;;;;5036177;28;20378;-69
2021/06/22 05:14:24;;;;;;;2.95;1.27;;;21.90;57.10;;;;;;5039085;28;20029;-69
2021/06/22 05:16:49;;;;;;;4.35;1.13;;;21.90;57.00;;;;;;5036370;28;20026;-69
2021/06/22 05:19:16;;;;;;;3.60;1.10;;;21.90;56.90;;;;;;5035679;28;20022;-69
2021/06/22 05:21:42;;;;;;;2.78;1.13;;;21.90;56.90;;;;;;5034205;28;20381;-69
2021/06/22 05:24:08;;;;;;;4.00;1.20;;;22.00;56.80;;;;;;5034299;28;20022;-69
2021/06/22 05:26:33;;;;;;;4.22;1.30;;;21.90;56.90;;;;;;5034068;28;20536;-69
2021/06/22 05:28:59;;;;;;;7.40;1.35;;;22.00;56.80;;;;;;5034111;28;20061;-69
2021/06/22 05:31:24;;;;;;;3.30;1.10;;;22.00;56.70;;;;;;5033987;28;20032;-70
2021/06/22 05:33:50;;;;;;;3.90;1.50;;;21.90;56.70;;;;;;5034283;28;20052;-69
2021/06/22 05:36:16;;;;;;;2.80;1.20;;;22.00;56.70;;;;;;5033782;28;20033;-69
2021/06/22 05:38:41;;;;;;;4.20;1.25;;;21.90;56.70;;;;;;5034275;28;20413;-68
2021/06/22 05:41:07;;;;;;;3.50;1.38;;;22.00;56.70;;;;;;5033734;28;20582;-69
2021/06/22 05:43:34;;;;;;;3.25;1.20;;;22.00;56.60;;;;;;5033851;28;20052;-69
2021/06/22 05:46:00;;;;;;;4.50;1.42;;;22.00;56.70;;;;;;5033700;28;20307;-70
2021/06/22 05:48:25;;;;;;;3.30;1.23;;;21.90;56.60;;;;;;5033792;28;20060;-69
2021/06/22 05:50:51;;;;;;;4.13;1.40;;;22.00;56.50;;;;;;5033576;28;20037;-69
2021/06/22 05:53:17;;;;;;;2.63;1.20;;;21.90;56.70;;;;;;5033851;28;20083;-69
2021/06/22 05:55:42;;;;;;;3.67;1.63;;;21.90;56.60;;;;;;5033778;28;20066;-69
2021/06/22 05:58:08;;;;;;;3.53;1.25;;;21.90;56.50;;;;;;5033338;28;20532;-69
2021/06/22 06:00:34;;;;;;;3.83;1.48;;;21.90;56.50;;;;;;5033430;28;20029;-69
2021/06/22 06:03:00;;;;;;;6.55;1.30;;;22.00;56.50;;;;;;5032933;28;20025;-69
2021/06/22 06:05:26;;;;;;;4.55;1.55;;;22.00;56.40;;;;;;5033096;28;20497;-69
2021/06/22 06:07:52;;;;;;;2.35;1.20;;;22.00;56.30;;;;;;5033658;28;20029;-69
2021/06/22 06:10:19;;;;;;;4.07;1.65;;;22.00;56.30;;;;;;5033524;28;20037;-69
2021/06/22 06:12:45;;;;;;;2.83;1.38;;;22.00;56.20;;;;;;5033121;28;20025;-66
2021/06/22 06:15:12;;;;;;;7.05;1.73;;;22.00;56.20;;;;;;5050675;28;20027;-64
2021/06/22 06:17:38;;;;;;;7.75;2.10;;;22.00;54.60;;;;;;5052480;28;20106;-64
2021/06/22 06:20:07;;;;;;;6.70;1.90;;;22.00;53.40;;;;;;5051507;28;20029;-64
2021/06/22 06:22:34;;;;;;;4.97;1.67;;;21.90;54.10;;;;;;5041039;28;20037;-64
2021/06/22 06:25:02;;;;;;;6.32;1.77;;;22.00;55.40;;;;;;5031697;28;20022;-64
2021/06/22 06:30:14;;;;;;;2.80;1.38;;;22.10;55.20;;;;;;5033346;28;20033;-66
2021/06/22 06:32:39;;;;;;;5.60;1.67;;;22.10;55.00;;;;;;5045045;28;20025;-65
2021/06/22 06:35:06;;;;;;;4.68;1.42;;;22.10;55.20;;;;;;5048567;28;20052;-65
2021/06/22 06:37:32;;;;;;;4.03;1.40;;;22.10;55.30;;;;;;5031686;28;20048;-65
2021/06/22 06:39:58;;;;;;;5.68;1.30;;;22.20;55.30;;;;;;5039741;28;20029;-65
2021/06/22 06:42:24;;;;;;;5.07;1.65;;;22.20;55.20;;;;;;5052141;28;20456;-65
2021/06/22 06:44:49;;;;;;;4.25;1.40;;;22.20;55.30;;;;;;5050848;28;20041;-66
2021/06/22 06:47:15;;;;;;;4.53;1.75;;;22.10;55.30;;;;;;5042703;28;20419;-66
2021/06/22 06:49:40;;;;;;;3.85;1.52;;;22.20;55.20;;;;;;5031785;28;20101;-64
2021/06/22 06:52:06;;;;;;;3.92;1.70;;;22.20;55.20;;;;;;5032859;28;20025;-65
2021/06/22 06:54:33;;;;;;;3.25;1.20;;;22.20;55.20;;;;;;5046429;28;20025;-64
2021/06/22 06:56:59;;;;;;;5.80;1.63;;;22.20;55.20;;;;;;5051658;28;20499;-64
2021/06/22 06:59:24;;;;;;;7.13;1.52;;;22.20;55.10;;;;;;5050695;28;20017;-65
2021/06/22 07:01:50;;;;;;;3.33;1.17;;;22.20;55.20;;;;;;5048589;28;20032;-65
2021/06/22 07:04:16;;;;;;;5.00;1.67;;;22.20;55.20;;;;;;5053026;28;20092;-66
2021/06/22 07:06:42;;;;;;;3.95;1.38;;;22.30;55.20;;;;;;5056286;28;20056;-62
2021/06/22 07:09:08;;;;;;;3.78;1.45;;;22.30;55.10;;;;;;5053427;28;20032;-63
2021/06/22 07:11:34;;;;;;;4.32;1.60;;;22.30;55.10;;;;;;5051632;28;20044;-64
2021/06/22 07:14:00;;;;;;;5.35;1.63;;;22.30;55.00;;;;;;5053465;28;20387;-65
2021/06/22 07:16:25;;;;;;;6.72;1.33;;;22.40;55.00;;;;;;5054461;28;20052;-64
2021/06/22 07:18:51;;;;;;;4.47;1.52;;;22.40;55.10;;;;;;5035046;28;20401;-66
2021/06/22 07:21:18;;;;;;;4.30;1.42;;;22.30;54.90;;;;;;5035375;28;20026;-66
2021/06/22 07:23:44;;;;;;;3.70;1.50;;;22.40;54.90;;;;;;5033759;28;20029;-65
2021/06/22 07:26:09;;;;;;;6.93;1.90;;;22.40;54.90;;;;;;5034644;28;20025;-66
2021/06/22 07:28:35;;;;;;;7.55;1.77;;;22.40;54.80;;;;;;5039779;28;20123;-66
2021/06/22 07:31:06;;;;;;;5.72;1.65;;;22.50;54.80;;;;;;5036366;28;20124;-65
2021/06/22 07:33:31;;;;;;;3.83;1.42;;;22.50;54.80;;;;;;5033507;28;20029;-65
2021/06/22 07:35:57;;;;;;;7.78;1.80;;;22.50;54.90;;;;;;5033861;28;20235;-64
2021/06/22 07:38:22;;;;;;;6.28;1.48;;;22.50;54.80;;;;;;5034805;28;20496;-64
2021/06/22 07:40:48;;;;;;;5.68;1.77;;;22.40;54.80;;;;;;5034544;28;20419;-65
2021/06/22 07:43:15;;;;;;;5.07;1.80;;;22.50;54.90;;;;;;5034485;28;20481;-65
2021/06/22 07:45:41;;;;;;;7.43;1.73;;;22.50;54.90;;;;;;5033791;28;20110;-64
2021/06/22 07:48:08;;;;;;;12.60;2.22;;;22.40;54.80;;;;;;5039959;28;20032;-65
2021/06/22 07:50:33;;;;;;;5.72;1.50;;;22.50;54.80;;;;;;5034720;28;20381;-65
2021/06/22 07:53:01;;;;;;;5.30;1.73;;;22.50;54.80;;;;;;5034192;28;20022;-65
2021/06/22 07:55:30;;;;;;;6.25;1.60;;;22.50;54.90;;;;;;5034083;28;20355;-65
2021/06/22 07:57:56;;;;;;;6.97;1.52;;;22.50;54.90;;;;;;5034422;28;20048;-65
2021/06/22 08:00:40;;;;;;;2.83;1.38;;;22.50;54.70;;;;;;5047041;28;20025;-65
2021/06/22 08:03:07;;;;;;;5.40;1.55;;;22.50;54.80;;;;;;5054540;28;20110;-65
2021/06/22 08:05:33;;;;;;;5.40;1.17;;;22.50;54.60;;;;;;5054388;28;20035;-65
2021/06/22 08:07:59;;;;;;;4.22;1.40;;;22.50;54.60;;;;;;5054798;28;20516;-64
2021/06/22 08:10:25;;;;;;;7.78;1.80;;;22.60;54.60;;;;;;5048307;28;20025;-66
2021/06/22 08:12:50;;;;;;;5.40;1.92;;;22.50;54.60;;;;;;5034910;28;20378;-66
2021/06/22 08:15:17;;;;;;;4.38;1.95;;;22.60;54.60;;;;;;5035663;28;20029;-66
2021/06/22 08:17:43;;;;;;;6.75;1.70;;;22.60;54.60;;;;;;5035256;28;20037;-65
2021/06/22 08:20:11;;;;;;;7.07;1.85;;;22.60;54.50;;;;;;5033461;28;20075;-67
2021/06/22 08:22:37;;;;;;;5.78;1.90;;;22.60;54.50;;;;;;5048463;28;20025;-66
2021/06/22 08:25:04;;;;;;;6.72;2.08;;;22.60;54.40;;;;;;5052494;28;20037;-65
2021/06/22 08:27:30;;;;;;;5.28;1.70;;;22.60;54.30;;;;;;5053650;28;20115;-66
2021/06/22 08:29:55;;;;;;;6.07;1.90;;;22.60;54.20;;;;;;5046164;28;20100;-67
2021/06/22 08:32:21;;;;;;;4.65;1.48;;;22.60;54.00;;;;;;5053478;28;20073;-67
2021/06/22 08:34:46;;;;;;;3.00;1.20;;;22.70;54.10;;;;;;5053298;28;20488;-66
2021/06/22 08:37:12;;;;;;;3.63;1.60;;;22.70;53.90;;;;;;5051985;28;20123;-65
2021/06/22 08:39:37;;;;;;;4.63;1.55;;;22.70;53.80;;;;;;5053826;28;20433;-66
2021/06/22 08:42:06;;;;;;;5.68;1.83;;;22.70;53.80;;;;;;5053652;28;20021;-65
2021/06/22 08:44:33;;;;;;;6.75;1.60;;;22.70;53.80;;;;;;5052966;28;20493;-65
2021/06/22 08:47:00;;;;;;;7.80;1.73;;;22.70;53.90;;;;;;5053021;28;20083;-65
2021/06/22 08:49:28;;;;;;;4.72;1.70;;;22.70;53.90;;;;;;5053144;28;20412;-65
2021/06/22 08:51:55;;;;;;;6.47;1.60;;;22.70;53.90;;;;;;5053065;28;20013;-66
2021/06/22 08:54:21;;;;;;;5.70;1.48;;;22.80;53.80;;;;;;5052936;28;20083;-65
2021/06/22 08:56:46;;;;;;;4.47;1.70;;;22.80;53.90;;;;;;5053288;28;20037;-66
2021/06/22 08:59:12;;;;;;;6.25;1.70;;;22.70;53.60;;;;;;5053313;28;20075;-66
2021/06/22 09:01:37;;;;;;;5.53;1.73;;;22.70;53.50;;;;;;5052526;28;20115;-64
2021/06/22 09:04:03;;;;;;;4.68;1.60;;;22.80;53.60;;;;;;5052274;28;20545;-65
2021/06/22 09:06:42;;;;;;;3.55;1.52;;;22.80;53.80;;;;;;5051473;28;20021;-66
2021/06/22 09:09:09;;;;;;;5.80;1.67;;;22.80;53.90;;;;;;5053356;28;20436;-68
2021/06/22 09:11:35;;;;;;;7.05;2.03;;;22.80;53.80;;;;;;5052975;28;20040;-67
2021/06/22 09:14:06;;;;;;;9.38;1.92;;;22.80;53.80;;;;;;5053317;28;20123;-66
2021/06/22 09:16:33;;;;;;;5.80;1.70;;;22.80;53.80;;;;;;5052135;28;20099;-66
2021/06/22 09:19:04;;;;;;;8.07;2.08;;;22.80;53.80;;;;;;5052725;28;20179;-66
2021/06/22 09:21:39;;;;;;;3.75;1.50;;;22.80;53.70;;;;;;5052681;28;20507;-66
2021/06/22 09:24:13;;;;;;;;;;;22.80;53.70;;;;;;5053363;28;20078;-67
2021/06/22 09:26:44;;;;;;;7.00;2.20;;;22.80;53.80;;;;;;5052321;28;20008;-66
2021/06/22 09:29:12;;;;;;;6.28;1.85;;;22.70;53.70;;;;;;5053023;28;20028;-65
2021/06/22 09:31:49;;;;;;;5.13;1.73;;;22.70;53.70;;;;;;5052385;28;20025;-65
2021/06/22 09:34:17;;;;;;;4.85;1.50;;;22.70;53.80;;;;;;5052645;28;20028;-65
2021/06/22 09:36:49;;;;;;;5.10;1.92;;;22.80;53.80;;;;;;5051537;28;20061;-65
2021/06/22 09:39:15;;;;;;;5.05;1.75;;;22.80;53.80;;;;;;5052659;28;20024;-66
2021/06/22 09:41:43;;;;;;;4.03;1.42;;;22.80;53.80;;;;;;5052553;28;20021;-66
2021/06/22 09:44:17;;;;;;;5.70;2.00;;;22.80;53.80;;;;;;5052491;28;20032;-65
2021/06/22 09:46:45;;;;;;;4.05;1.88;;;22.80;53.70;;;;;;5051583;28;20039;-65
2021/06/22 09:49:31;;;;;;;5.80;2.00;;;22.80;53.70;;;;;;5052514;28;20364;-65
2021/06/22 09:52:09;;;;;;;4.80;1.75;;;22.90;53.50;;;;;;5052644;28;20037;-65
2021/06/22 09:54:48;;;;;;;4.88;1.67;;;22.90;53.50;;;;;;5052287;28;20017;-65
2021/06/22 09:57:21;;;;;;;4.63;1.88;;;22.90;53.30;;;;;;5052185;28;20040;-66
2021/06/22 09:59:51;;;;;;;5.03;1.85;;;22.80;53.50;;;;;;5052518;28;20503;-66
2021/06/22 10:02:21;;;;;;;4.53;1.92;;;22.90;53.50;;;;;;5052847;28;20021;-66
2021/06/22 10:05:00;;;;;;;6.43;1.88;;;22.90;53.50;;;;;;5048002;28;20025;-65
2021/06/22 10:07:28;;;;;;;4.65;1.58;;;22.90;53.60;;;;;;5039842;28;20049;-65
2021/06/22 10:09:58;;;;;;;5.50;1.95;;;22.90;53.60;;;;;;5058099;28;20086;-66
2021/06/22 10:12:27;;;;;;;8.00;2.00;;;22.90;53.60;;;;;;5052999;28;20028;-65
2021/06/22 10:14:54;;;;;;;7.00;1.90;;;22.90;53.60;;;;;;5051134;28;20020;-66
2021/06/22 10:17:24;;;;;;;5.53;1.85;;;22.90;53.60;;;;;;5048031;28;20094;-66
2021/06/22 10:19:52;;;;;;;7.30;1.70;;;22.90;53.60;;;;;;5050877;28;20035;-66
2021/06/22 10:22:25;;;;;;;5.13;1.77;;;22.80;53.50;;;;;;5038562;28;20570;-66
2021/06/22 10:24:50;;;;;;;7.18;1.77;;;22.80;53.70;;;;;;5035790;28;20049;-65
2021/06/22 10:27:18;;;;;;;4.20;1.60;;;22.90;53.60;;;;;;5051062;28;20064;-66
2021/06/22 10:29:46;;;;;;;4.82;1.60;;;22.90;53.60;;;;;;5043691;28;20021;-66
2021/06/22 10:32:13;;;;;;;5.93;1.63;;;22.90;53.60;;;;;;5051402;28;20029;-64
2021/06/22 10:34:43;;;;;;;4.93;1.75;;;22.90;53.70;;;;;;5052319;28;20025;-65
2021/06/22 10:37:33;;;;;;;6.82;2.13;;;22.80;53.60;;;;;;5052137;28;20033;-65
2021/06/22 10:40:17;;;;;;;4.18;1.50;;;22.90;53.70;;;;;;5051316;28;20032;-66
2021/06/22 10:42:53;;;;;;;4.55;1.45;;;22.80;53.70;;;;;;5051669;28;20048;-65
2021/06/22 10:45:20;;;;;;;5.65;1.60;;;22.90;53.60;;;;;;5050104;28;20416;-66
2021/06/22 10:47:47;;;;;;;4.90;1.42;;;22.90;53.70;;;;;;5049207;28;20033;-66
2021/06/22 10:50:18;;;;;;;5.40;1.60;;;22.90;53.70;;;;;;5055387;28;20115;-67
2021/06/22 10:52:44;;;;;;;4.20;1.63;;;22.90;53.60;;;;;;5055140;28;20024;-65
2021/06/22 10:55:41;;;;;;;5.18;1.73;;;22.90;53.50;;;;;;5055099;28;20025;-65
2021/06/22 10:58:07;;;;;;;4.30;1.60;;;22.90;53.60;;;;;;5050272;28;20083;-64
2021/06/22 11:00:42;;;;;;;3.45;1.30;;;22.90;53.60;;;;;;5054884;28;20057;-65
2021/06/22 11:03:18;;;;;;;4.53;1.33;;;22.90;53.60;;;;;;5054503;28;20499;-64
2021/06/22 11:05:44;;;;;;;7.75;1.65;;;22.90;53.50;;;;;;5041556;28;20065;-64
2021/06/22 11:08:13;;;;;;;4.57;1.70;;;22.90;53.30;;;;;;5033711;28;20059;-64
2021/06/22 11:10:40;;;;;;;2.90;1.30;;;22.90;53.30;;;;;;5035093;28;20064;-65
2021/06/22 11:13:07;;;;;;;4.80;1.95;;;23.00;53.20;;;;;;5033624;28;20041;-65
2021/06/22 11:15:50;;;;;;;5.07;1.63;;;23.00;53.20;;;;;;5033730;28;20108;-66
2021/06/22 11:18:17;;;;;;;4.97;1.67;;;23.00;53.10;;;;;;5041584;28;20033;-63
2021/06/22 11:21:04;;;;;;;4.25;1.70;;;23.00;53.10;;;;;;5053151;28;20031;-64
2021/06/22 11:23:30;;;;;;;3.63;1.50;;;23.00;53.20;;;;;;5046111;28;20091;-64
2021/06/22 11:26:01;;;;;;;4.15;1.70;;;23.00;53.10;;;;;;5053794;28;20025;-65
2021/06/22 11:28:27;;;;;;;5.55;1.73;;;23.00;53.20;;;;;;5053102;28;20029;-64
2021/06/22 11:31:01;;;;;;;6.47;1.95;;;23.00;53.10;;;;;;5054759;28;20032;-61
2021/06/22 11:33:47;;;;;;;3.83;1.50;;;23.00;53.20;;;;;;5054081;28;20017;-64
2021/06/22 11:36:15;;;;;;;3.67;1.45;;;23.00;53.20;;;;;;5051595;28;20094;-65
2021/06/22 11:38:44;;;;;;;4.07;1.55;;;23.00;53.10;;;;;;5054129;28;20031;-65
2021/06/22 11:41:15;;;;;;;5.45;1.77;;;23.00;53.10;;;;;;5055063;28;20532;-65
2021/06/22 11:44:08;;;;;;;4.88;1.60;;;23.00;53.00;;;;;;5055710;28;20021;-65
2021/06/22 11:46:35;;;;;;;3.45;1.42;;;23.00;53.00;;;;;;5054654;28;20044;-66
2021/06/22 11:49:02;;;;;;;4.32;1.50;;;23.10;53.00;;;;;;5055261;28;20509;-66
2021/06/22 11:51:53;;;;;;;6.15;1.65;;;23.10;52.90;;;;;;5055663;28;20420;-64
2021/06/22 11:54:52;;;;;;;3.97;1.60;;;23.10;52.80;;;;;;5039988;28;20065;-63
2021/06/22 11:57:28;;;;;;;5.38;1.77;;;23.10;52.80;;;;;;5056949;28;20033;-65
2021/06/22 12:00:06;;;;;;;2.85;1.50;;;23.20;52.80;;;;;;5060959;28;20494;-67
2021/06/22 12:02:32;;;;;;;4.60;1.45;;;23.20;52.80;;;;;;5066825;28;20548;-68
2021/06/22 12:05:07;;;;;;;6.40;2.00;;;23.10;52.80;;;;;;5058902;28;20025;-65
2021/06/22 12:07:48;;;;;;;4.80;1.45;;;23.20;52.80;;;;;;5047680;28;20025;-65
2021/06/22 12:10:15;;;;;;;2.67;1.50;;;23.20;52.80;;;;;;5047010;28;20033;-64
2021/06/22 12:12:48;;;;;;;6.20;1.60;;;23.20;52.80;;;;;;5039992;28;20032;-64
2021/06/22 12:15:26;;;;;;;3.88;1.65;;;23.10;52.80;;;;;;5047693;28;20017;-65
2021/06/22 12:17:52;;;;;;;4.35;1.63;;;23.20;52.70;;;;;;5061570;28;20040;-64
2021/06/22 12:20:26;;;;;;;4.80;2.22;;;23.20;52.70;;;;;;5055316;28;20027;-64
2021/06/22 12:23:05;;;;;;;4.80;1.55;;;23.20;52.80;;;;;;5054895;28;20021;-64
2021/06/22 12:25:42;;;;;;;4.32;1.63;;;23.20;52.70;;;;;;5053881;28;20064;-64
2021/06/22 12:28:09;;;;;;;4.15;1.30;;;23.20;52.80;;;;;;5054712;28;20041;-68
2021/06/22 12:30:46;;;;;;;4.97;1.75;;;23.20;52.70;;;;;;5055189;28;20490;-66
2021/06/22 12:33:12;;;;;;;5.38;1.67;;;23.20;52.70;;;;;;5055355;28;20025;-66
2021/06/22 12:35:39;;;;;;;5.60;1.52;;;23.20;52.50;;;;;;5054966;28;20031;-65
2021/06/22 12:38:10;;;;;;;4.43;1.55;;;23.20;52.60;;;;;;5053440;28;20033;-65
2021/06/22 12:40:41;;;;;;;4.38;1.70;;;23.20;52.50;;;;;;5055155;28;20017;-65
2021/06/22 12:43:06;;;;;;;5.47;1.80;;;23.20;52.60;;;;;;5060346;28;20036;-68
2021/06/22 12:45:32;;;;;;;4.90;1.58;;;23.20;52.60;;;;;;5057736;28;20045;-66
2021/06/22 12:47:58;;;;;;;4.30;1.60;;;23.20;52.50;;;;;;5054459;28;20051;-66
2021/06/22 12:50:28;;;;;;;5.35;1.65;;;23.20;52.60;;;;;;5054468;28;20029;-66
2021/06/22 12:52:54;;;;;;;2.95;1.27;;;23.20;52.50;;;;;;5054126;28;20060;-66